createdAt,value
2023-10-04T00:00:19.940Z,8.20
2023-10-04T00:02:50.900Z,8.00
2023-10-04T00:05:22.305Z,8.70
2023-10-04T00:07:51.813Z,6.90
2023-10-04T00:10:22.852Z,8.70
2023-10-04T00:12:52.181Z,7.73
2023-10-04T00:15:21.952Z,7.80
2023-10-04T00:17:54.454Z,6.90
2023-10-04T00:20:32.808Z,7.60
2023-10-04T00:23:01.306Z,7.70
2023-10-04T00:25:30.100Z,7.50
2023-10-04T00:27:58.754Z,8.67
2023-10-04T00:30:28.927Z,7.10
2023-10-04T00:32:57.879Z,8.13
2023-10-04T00:35:27.922Z,7.60
2023-10-04T00:37:58.841Z,7.57
2023-10-04T00:40:29.547Z,7.50
2023-10-04T00:43:00.718Z,7.93
2023-10-04T00:45:33.654Z,8.87
2023-10-04T00:48:06.167Z,9.37
2023-10-04T00:50:38.050Z,7.77
2023-10-04T00:53:09.345Z,8.10
2023-10-04T00:55:40.365Z,8.03
2023-10-04T00:58:09.612Z,7.03
2023-10-04T01:00:40.036Z,7.20
2023-10-04T01:03:08.756Z,7.97
2023-10-04T01:05:41.882Z,7.70
2023-10-04T01:08:11.204Z,7.30
2023-10-04T01:10:39.922Z,8.23
2023-10-04T01:13:11.302Z,8.87
2023-10-04T01:15:40.891Z,7.77
2023-10-04T01:18:13.251Z,7.20
2023-10-04T01:20:43.392Z,7.50
2023-10-04T01:23:13.220Z,7.10
2023-10-04T01:25:43.168Z,8.10
2023-10-04T01:28:14.772Z,7.83
2023-10-04T01:30:43.879Z,8.30
2023-10-04T01:33:17.058Z,7.50
2023-10-04T01:35:47.317Z,8.03
2023-10-04T01:38:17.309Z,6.93
2023-10-04T01:40:51.183Z,7.53
2023-10-04T01:43:21.279Z,8.00
2023-10-04T01:45:54.538Z,7.90
2023-10-04T01:48:24.840Z,8.17
2023-10-04T01:50:55.273Z,7.27
2023-10-04T01:53:28.861Z,8.20
2023-10-04T01:56:00.517Z,7.83
2023-10-04T01:58:30.732Z,8.77
2023-10-04T02:01:02.425Z,8.23
2023-10-04T02:03:32.644Z,8.43
2023-10-04T02:06:03.538Z,7.27
2023-10-04T02:08:35.265Z,6.97
2023-10-04T02:11:08.077Z,7.60
2023-10-04T02:13:39.024Z,7.50
2023-10-04T02:16:10.272Z,7.23
2023-10-04T02:18:42.029Z,7.43
2023-10-04T02:21:12.496Z,7.60
2023-10-04T02:23:44.463Z,7.83
2023-10-04T02:26:14.417Z,7.60
2023-10-04T02:28:47.122Z,7.33
2023-10-04T02:31:16.720Z,7.37
2023-10-04T02:33:47.350Z,7.20
2023-10-04T02:36:16.582Z,7.67
2023-10-04T02:38:47.779Z,9.10
2023-10-04T02:41:17.434Z,7.73
2023-10-04T02:43:46.814Z,7.10
2023-10-04T02:46:18.204Z,7.27
2023-10-04T02:48:49.679Z,7.40
2023-10-04T02:51:20.180Z,8.13
2023-10-04T02:53:53.246Z,6.50
2023-10-04T02:56:24.697Z,6.50
2023-10-04T02:58:55.788Z,8.30
2023-10-04T03:01:26.164Z,6.70
2023-10-04T03:03:55.277Z,6.87
2023-10-04T03:06:24.728Z,8.83
2023-10-04T03:08:56.566Z,8.20
2023-10-04T03:11:26.771Z,7.67
2023-10-04T03:13:55.153Z,7.63
2023-10-04T03:16:23.511Z,7.90
2023-10-04T03:18:51.957Z,7.10
2023-10-04T03:21:21.812Z,8.07
2023-10-04T03:23:50.710Z,8.67
2023-10-04T03:26:20.645Z,7.17
2023-10-04T03:28:49.525Z,7.70
2023-10-04T03:31:19.822Z,8.70
2023-10-04T03:33:50.466Z,8.10
2023-10-04T03:36:20.260Z,8.37
2023-10-04T03:38:50.737Z,7.90
2023-10-04T03:41:21.038Z,9.07
2023-10-04T03:43:50.268Z,7.40
2023-10-04T03:46:21.543Z,8.50
2023-10-04T03:48:52.648Z,6.50
2023-10-04T03:51:24.920Z,7.63
2023-10-04T03:53:54.730Z,7.90
2023-10-04T03:56:27.151Z,7.00
2023-10-04T03:58:58.459Z,7.20
2023-10-04T04:01:28.211Z,7.10
2023-10-04T04:04:03.628Z,7.70
2023-10-04T04:06:32.184Z,8.10
2023-10-04T04:09:08.330Z,7.63
2023-10-04T04:11:38.269Z,8.10
2023-10-04T04:14:09.422Z,7.90
2023-10-04T04:16:39.173Z,8.00
2023-10-04T04:19:07.846Z,7.53
2023-10-04T04:21:37.515Z,7.90
2023-10-04T04:24:07.964Z,7.30
2023-10-04T04:26:37.983Z,8.37
2023-10-04T04:29:10.985Z,9.97
2023-10-04T04:31:41.841Z,8.47
2023-10-04T04:34:14.536Z,9.27
2023-10-04T04:36:43.519Z,9.27
2023-10-04T04:39:17.950Z,10.27
2023-10-04T04:41:50.636Z,8.73
2023-10-04T04:44:22.195Z,9.17
2023-10-04T04:46:50.609Z,8.60
2023-10-04T04:49:20.498Z,8.87
2023-10-04T04:51:49.159Z,9.30
2023-10-04T04:54:20.010Z,10.47
2023-10-04T04:56:49.823Z,8.70
2023-10-04T04:59:22.272Z,9.30
2023-10-04T05:01:52.603Z,9.77
2023-10-04T05:04:24.108Z,8.90
2023-10-04T05:06:52.592Z,9.60
2023-10-04T05:09:21.047Z,9.50
2023-10-04T05:11:50.788Z,8.17
2023-10-04T05:14:19.649Z,7.70
2023-10-04T05:16:51.005Z,8.30
2023-10-04T05:19:19.660Z,8.83
2023-10-04T05:21:48.103Z,8.23
2023-10-04T05:24:16.411Z,8.67
2023-10-04T05:26:44.921Z,7.57
2023-10-04T05:29:14.879Z,7.93
2023-10-04T05:31:44.052Z,8.70
2023-10-04T05:34:13.277Z,8.20
2023-10-04T05:36:42.254Z,7.83
2023-10-04T05:39:16.142Z,9.13
2023-10-04T05:41:44.605Z,7.60
2023-10-04T05:44:14.567Z,8.67
2023-10-04T05:46:46.113Z,7.80
2023-10-04T05:49:14.547Z,8.50
2023-10-04T05:51:43.081Z,8.80
2023-10-04T05:54:12.142Z,9.83
2023-10-04T05:56:42.125Z,8.87
2023-10-04T05:59:12.139Z,9.47
2023-10-04T06:01:43.170Z,9.77
2023-10-04T06:04:12.537Z,9.40
2023-10-04T06:06:42.797Z,10.40
2023-10-04T06:09:11.907Z,13.00
2023-10-04T06:11:40.421Z,11.97
2023-10-04T06:14:08.770Z,12.33
2023-10-04T06:16:37.515Z,13.60
2023-10-04T06:19:19.712Z,13.90
2023-10-04T06:21:55.731Z,13.00
2023-10-04T06:24:24.021Z,12.73
2023-10-04T06:26:52.446Z,14.90
2023-10-04T06:29:21.014Z,14.90
2023-10-04T06:31:49.387Z,13.77
2023-10-04T06:34:19.132Z,12.63
2023-10-04T06:36:47.545Z,13.50
2023-10-04T06:39:16.172Z,11.87
2023-10-04T06:41:44.578Z,11.73
2023-10-04T06:44:12.897Z,11.50
2023-10-04T06:46:41.272Z,10.57
2023-10-04T06:49:10.303Z,11.87
2023-10-04T06:51:40.116Z,10.93
2023-10-04T06:54:08.760Z,12.00
2023-10-04T06:56:37.109Z,10.50
2023-10-04T06:59:07.050Z,9.97
2023-10-04T07:01:36.962Z,10.30
2023-10-04T07:04:05.597Z,10.03
2023-10-04T07:06:34.474Z,11.83
2023-10-04T07:09:06.092Z,9.60
2023-10-04T07:11:35.062Z,10.23
2023-10-04T07:14:05.741Z,10.50
2023-10-04T07:16:34.605Z,10.93
2023-10-04T07:19:05.361Z,9.53
2023-10-04T07:21:33.963Z,11.07
2023-10-04T07:24:05.088Z,10.97
2023-10-04T07:26:37.374Z,10.67
2023-10-04T07:29:06.099Z,10.70
2023-10-04T07:31:36.429Z,11.07
2023-10-04T07:34:05.074Z,12.10
2023-10-04T07:36:34.633Z,11.93
2023-10-04T07:39:05.467Z,10.00
2023-10-04T07:41:33.844Z,9.43
2023-10-04T07:44:02.206Z,9.00
2023-10-04T07:46:30.830Z,9.10
2023-10-04T07:49:00.621Z,8.60
2023-10-04T07:51:29.685Z,8.33
2023-10-04T07:53:58.070Z,8.50
2023-10-04T07:56:29.405Z,8.60
2023-10-04T07:58:58.776Z,8.40
2023-10-04T08:01:27.176Z,8.50
2023-10-04T08:03:56.263Z,8.23
2023-10-04T08:06:24.796Z,8.70
2023-10-04T08:08:53.959Z,9.90
2023-10-04T08:11:22.767Z,10.00
2023-10-04T08:13:52.577Z,8.37
2023-10-04T08:16:21.091Z,8.50
2023-10-04T08:18:49.518Z,9.10
2023-10-04T08:21:18.367Z,8.20
2023-10-04T08:23:46.948Z,8.97
2023-10-04T08:26:16.145Z,8.47
2023-10-04T08:28:45.267Z,9.80
2023-10-04T08:31:17.479Z,8.90
2023-10-04T08:33:45.999Z,9.10
2023-10-04T08:36:18.537Z,8.13
2023-10-04T08:38:47.586Z,8.70
2023-10-04T08:41:17.761Z,8.30
2023-10-04T08:43:46.694Z,9.20
2023-10-04T08:46:19.271Z,9.13
2023-10-04T08:48:55.208Z,8.47
2023-10-04T08:51:35.344Z,7.43
2023-10-04T08:54:13.441Z,9.13
2023-10-04T08:56:49.255Z,8.80
2023-10-04T08:59:19.947Z,8.07
2023-10-04T09:01:52.042Z,7.43
2023-10-04T09:04:22.186Z,8.67
2023-10-04T09:06:50.719Z,8.60
2023-10-04T09:09:19.755Z,8.70
2023-10-04T09:11:48.930Z,8.10
2023-10-04T09:14:17.290Z,8.07
2023-10-04T09:16:45.698Z,7.50
2023-10-04T09:19:18.719Z,9.10
2023-10-04T09:21:48.208Z,8.20
2023-10-04T09:24:17.845Z,7.90
2023-10-04T09:26:54.267Z,8.20
2023-10-04T09:29:31.937Z,9.10
2023-10-04T09:32:01.064Z,7.97
2023-10-04T09:34:32.769Z,8.47
2023-10-04T09:37:01.913Z,8.33
2023-10-04T09:39:32.533Z,8.37
2023-10-04T09:42:06.277Z,7.70
2023-10-04T09:44:37.342Z,8.17
2023-10-04T09:47:07.039Z,8.90
2023-10-04T09:49:41.832Z,9.17
2023-10-04T09:52:13.664Z,8.60
2023-10-04T09:54:42.437Z,8.27
2023-10-04T09:57:13.592Z,7.80
2023-10-04T09:59:47.380Z,9.80
2023-10-04T10:02:18.566Z,8.33
2023-10-04T10:04:51.368Z,7.67
2023-10-04T10:07:23.571Z,9.10
2023-10-04T10:10:02.570Z,8.90
2023-10-04T10:12:34.531Z,8.87
2023-10-04T10:15:04.361Z,8.77
2023-10-04T10:17:35.572Z,8.40
2023-10-04T10:20:06.902Z,8.00
2023-10-04T10:22:35.242Z,9.00
2023-10-04T10:25:16.519Z,8.27
2023-10-04T10:27:46.352Z,9.03
2023-10-04T10:30:18.126Z,8.63
2023-10-04T10:32:58.875Z,8.40
2023-10-04T10:36:01.225Z,8.77
2023-10-04T10:38:30.508Z,9.30
2023-10-04T10:40:59.056Z,9.37
2023-10-04T10:43:27.524Z,9.03
2023-10-04T10:45:57.624Z,9.40
2023-10-04T10:48:35.386Z,9.63
2023-10-04T10:51:06.403Z,9.20
2023-10-04T10:53:35.336Z,9.30
2023-10-04T10:56:04.531Z,8.60
2023-10-04T10:58:33.079Z,8.30
2023-10-04T11:01:02.656Z,9.20
2023-10-04T11:03:32.729Z,8.37
2023-10-04T11:06:01.296Z,9.33
2023-10-04T11:08:32.078Z,9.53
2023-10-04T11:11:01.700Z,8.90
2023-10-04T11:13:35.108Z,8.40
2023-10-04T11:16:09.042Z,8.50
2023-10-04T11:18:40.171Z,9.47
2023-10-04T11:21:09.138Z,8.27
2023-10-04T11:23:39.721Z,8.60
2023-10-04T11:26:10.397Z,8.60
2023-10-04T11:28:41.553Z,8.93
2023-10-04T11:31:10.093Z,9.00
2023-10-04T11:33:51.503Z,9.77
2023-10-04T11:36:24.730Z,9.13
2023-10-04T11:38:55.302Z,9.37
2023-10-04T11:41:30.080Z,8.30
2023-10-04T11:44:04.338Z,9.10
2023-10-04T11:46:59.421Z,10.00
2023-10-04T11:49:29.602Z,9.67
2023-10-04T11:52:01.338Z,9.97
2023-10-04T11:54:42.702Z,9.23
2023-10-04T11:57:11.495Z,9.80
2023-10-04T11:59:40.892Z,9.33
2023-10-04T12:02:09.343Z,9.53
2023-10-04T12:04:39.024Z,9.30
2023-10-04T12:07:09.107Z,9.10
2023-10-04T12:09:38.170Z,9.70
2023-10-04T12:12:08.182Z,9.70
2023-10-04T12:14:37.218Z,9.20
2023-10-04T12:17:07.328Z,9.63
2023-10-04T12:19:37.903Z,9.10
2023-10-04T12:22:10.102Z,8.73
2023-10-04T12:24:38.924Z,8.63
2023-10-04T12:27:09.722Z,8.37
2023-10-04T12:29:38.754Z,8.93
2023-10-04T12:32:08.532Z,9.70
2023-10-04T12:34:36.980Z,9.67
2023-10-04T12:37:05.613Z,8.73
2023-10-04T12:39:39.526Z,7.93
2023-10-04T12:42:09.638Z,8.67
2023-10-04T12:44:39.309Z,8.90
2023-10-04T12:47:09.559Z,9.00
2023-10-04T12:49:39.114Z,8.93
2023-10-04T12:52:08.471Z,9.30
2023-10-04T12:54:37.665Z,9.50
2023-10-04T12:57:06.115Z,9.10
2023-10-04T12:59:36.568Z,9.70
2023-10-04T13:02:04.932Z,8.90
2023-10-04T13:04:33.442Z,10.60
2023-10-04T13:07:03.023Z,9.27
2023-10-04T13:09:44.560Z,9.27
2023-10-04T13:12:21.104Z,8.30
2023-10-04T13:14:54.526Z,8.50
2023-10-04T13:17:25.270Z,8.53
2023-10-04T13:19:53.888Z,8.50
2023-10-04T13:22:23.545Z,8.53
2023-10-04T13:24:54.517Z,8.67
2023-10-04T13:27:24.508Z,8.80
2023-10-04T13:29:54.700Z,8.40
2023-10-04T13:32:26.808Z,9.47
2023-10-04T13:34:55.890Z,7.80
2023-10-04T13:37:24.329Z,8.23
2023-10-04T13:39:52.769Z,9.77
2023-10-04T13:42:28.652Z,9.10
2023-10-04T13:45:00.699Z,8.37
2023-10-04T13:47:30.149Z,8.90
2023-10-04T13:49:59.229Z,9.10
2023-10-04T13:52:27.604Z,8.70
2023-10-04T13:54:57.578Z,7.80
2023-10-04T13:57:26.246Z,8.57
2023-10-04T13:59:55.082Z,7.60
2023-10-04T14:02:24.889Z,10.70
2023-10-04T14:04:53.337Z,9.17
2023-10-04T14:07:22.805Z,9.10
2023-10-04T14:09:51.164Z,8.37
2023-10-04T14:12:22.370Z,9.13
2023-10-04T14:14:52.656Z,8.90
2023-10-04T14:17:22.345Z,7.60
2023-10-04T14:19:52.070Z,8.27
2023-10-04T14:22:20.834Z,8.40
2023-10-04T14:24:49.552Z,7.80
2023-10-04T14:27:18.216Z,8.63
2023-10-04T14:29:47.602Z,8.00
2023-10-04T14:32:15.966Z,8.30
2023-10-04T14:34:44.186Z,8.80
2023-10-04T14:37:15.020Z,8.63
2023-10-04T14:39:43.349Z,8.67
2023-10-04T14:42:14.584Z,9.40
2023-10-04T14:44:44.360Z,8.73
2023-10-04T14:47:14.314Z,8.40
2023-10-04T14:49:45.764Z,8.63
2023-10-04T14:52:15.939Z,8.60
2023-10-04T14:54:44.574Z,8.30
2023-10-04T14:57:12.917Z,9.20
2023-10-04T14:59:41.206Z,8.40
2023-10-04T15:02:10.306Z,8.03
2023-10-04T15:04:40.454Z,8.10
2023-10-04T15:07:09.100Z,9.20
2023-10-04T15:09:39.639Z,9.80
2023-10-04T15:12:08.260Z,8.90
2023-10-04T15:14:37.149Z,8.70
2023-10-04T15:17:06.070Z,7.77
2023-10-04T15:19:34.506Z,9.10
2023-10-04T15:22:04.531Z,9.53
2023-10-04T15:24:33.092Z,8.73
2023-10-04T15:27:04.910Z,7.50
2023-10-04T15:29:33.968Z,8.30
2023-10-04T15:32:02.610Z,7.87
2023-10-04T15:34:31.166Z,8.40
2023-10-04T15:36:59.832Z,9.07
2023-10-04T15:39:32.467Z,8.50
2023-10-04T15:42:04.626Z,9.07
2023-10-04T15:44:32.989Z,8.23
2023-10-04T15:47:04.113Z,8.73
2023-10-04T15:49:35.737Z,7.83
2023-10-04T15:52:08.910Z,8.47
2023-10-04T15:54:39.982Z,9.23
2023-10-04T15:57:26.443Z,8.70
2023-10-04T15:59:54.660Z,8.03
2023-10-04T16:02:23.006Z,8.37
2023-10-04T16:04:52.711Z,9.03
2023-10-04T16:07:21.113Z,8.80
2023-10-04T16:09:49.588Z,8.53
2023-10-04T16:12:18.166Z,9.10
2023-10-04T16:14:49.200Z,8.00
2023-10-04T16:17:17.792Z,10.03
2023-10-04T16:19:47.007Z,8.60
2023-10-04T16:22:15.536Z,9.27
2023-10-04T16:24:43.959Z,7.53
2023-10-04T16:27:12.656Z,8.50
2023-10-04T16:29:42.030Z,8.80
2023-10-04T16:32:12.057Z,8.93
2023-10-04T16:34:42.998Z,9.30
2023-10-04T16:37:12.096Z,9.20
2023-10-04T16:39:40.466Z,8.10
2023-10-04T16:42:08.903Z,8.57
2023-10-04T16:44:37.163Z,8.13
2023-10-04T16:47:05.958Z,9.53
2023-10-04T16:49:35.936Z,9.27
2023-10-04T16:52:04.524Z,8.17
2023-10-04T16:54:33.995Z,8.10
2023-10-04T16:57:02.320Z,8.93
2023-10-04T16:59:30.894Z,8.37
2023-10-04T17:01:59.300Z,8.10
2023-10-04T17:04:28.163Z,9.83
2023-10-04T17:06:57.961Z,9.03
2023-10-04T17:09:26.947Z,8.73
2023-10-04T17:11:55.678Z,8.70
2023-10-04T17:14:24.048Z,8.50
2023-10-04T17:16:52.497Z,9.70
2023-10-04T17:19:20.958Z,9.10
2023-10-04T17:21:49.459Z,9.30
2023-10-04T17:24:19.432Z,9.00
2023-10-04T17:26:48.650Z,9.23
2023-10-04T17:29:17.402Z,8.20
2023-10-04T17:31:45.976Z,8.33
2023-10-04T17:34:14.498Z,8.10
2023-10-04T17:36:42.907Z,8.43
2023-10-04T17:39:12.713Z,9.13
2023-10-04T17:41:42.676Z,8.00
2023-10-04T17:44:12.200Z,8.70
2023-10-04T17:46:40.778Z,9.37
2023-10-04T17:49:09.284Z,8.80
2023-10-04T17:51:38.245Z,8.67
2023-10-04T17:54:08.260Z,7.90
2023-10-04T17:56:38.539Z,8.53
2023-10-04T17:59:08.288Z,8.13
2023-10-04T18:01:36.777Z,9.33
2023-10-04T18:04:05.809Z,8.37
2023-10-04T18:06:34.494Z,9.70
2023-10-04T18:09:02.899Z,9.87
2023-10-04T18:11:31.834Z,9.37
2023-10-04T18:14:00.191Z,8.83
2023-10-04T18:16:30.332Z,9.43
2023-10-04T18:18:59.488Z,8.90
2023-10-04T18:21:28.930Z,8.50
2023-10-04T18:23:57.334Z,8.57
2023-10-04T18:26:25.730Z,9.83
2023-10-04T18:28:55.305Z,8.47
2023-10-04T18:31:24.000Z,8.30
2023-10-04T18:33:56.339Z,9.53
2023-10-04T18:36:26.495Z,9.47
2023-10-04T18:38:55.477Z,8.70
2023-10-04T18:41:24.003Z,9.70
2023-10-04T18:43:52.280Z,8.40
2023-10-04T18:46:22.208Z,8.30
2023-10-04T18:48:50.813Z,8.90
2023-10-04T18:51:21.152Z,9.20
2023-10-04T18:53:50.523Z,9.47
2023-10-04T18:56:18.979Z,8.53
2023-10-04T18:58:49.786Z,8.73
2023-10-04T19:01:18.925Z,8.97
2023-10-04T19:03:47.558Z,8.57
2023-10-04T19:06:16.602Z,9.60
2023-10-04T19:08:46.390Z,10.30
2023-10-04T19:11:22.208Z,8.87
2023-10-04T19:13:50.833Z,8.60
2023-10-04T19:16:19.555Z,10.33
2023-10-04T19:18:48.044Z,9.07
2023-10-04T19:21:16.390Z,9.50
2023-10-04T19:23:46.962Z,8.53
2023-10-04T19:26:16.577Z,8.67
2023-10-04T19:28:45.098Z,9.13
2023-10-04T19:31:13.535Z,8.63
2023-10-04T19:33:42.371Z,8.77
2023-10-04T19:36:12.009Z,8.87
2023-10-04T19:38:42.513Z,9.60
2023-10-04T19:41:15.136Z,8.90
2023-10-04T19:43:43.466Z,9.30
2023-10-04T19:46:13.483Z,8.70
2023-10-04T19:48:43.313Z,8.93
2023-10-04T19:51:11.764Z,8.40
2023-10-04T19:53:40.893Z,9.67
2023-10-04T19:56:09.784Z,8.57
2023-10-04T19:58:40.318Z,9.43
2023-10-04T20:01:08.792Z,8.90
2023-10-04T20:03:38.004Z,9.20
2023-10-04T20:06:10.556Z,8.60
2023-10-04T20:08:39.110Z,8.50
2023-10-04T20:11:08.801Z,8.47
2023-10-04T20:13:37.721Z,8.90
2023-10-04T20:16:11.611Z,7.90
2023-10-04T20:18:40.883Z,9.27
2023-10-04T20:21:16.533Z,7.70
2023-10-04T20:23:44.863Z,8.70
2023-10-04T20:26:13.503Z,8.20
2023-10-04T20:28:42.398Z,8.50
2023-10-04T20:31:12.412Z,8.80
2023-10-04T20:33:40.858Z,8.20
2023-10-04T20:36:09.608Z,8.63
2023-10-04T20:38:37.957Z,8.33
2023-10-04T20:41:06.600Z,8.20
2023-10-04T20:43:35.208Z,8.73
2023-10-04T20:46:03.705Z,8.63
2023-10-04T20:48:33.401Z,8.40
2023-10-04T20:51:02.277Z,8.43
2023-10-04T20:53:31.497Z,8.80
2023-10-04T20:56:01.193Z,8.37
2023-10-04T20:58:30.018Z,8.27
2023-10-04T21:00:59.139Z,9.17
2023-10-04T21:03:28.558Z,9.17
2023-10-04T21:05:58.410Z,7.50
2023-10-04T21:08:27.229Z,7.90
2023-10-04T21:10:55.833Z,7.60
2023-10-04T21:13:24.207Z,7.83
2023-10-04T21:15:52.679Z,8.80
2023-10-04T21:18:23.804Z,8.00
2023-10-04T21:20:53.123Z,7.93
2023-10-04T21:23:23.005Z,8.00
2023-10-04T21:25:51.584Z,8.83
2023-10-04T21:28:20.071Z,8.60
2023-10-04T21:30:54.449Z,8.30
2023-10-04T21:33:26.554Z,9.40
2023-10-04T21:36:08.523Z,8.47
2023-10-04T21:38:41.035Z,9.33
2023-10-04T21:41:09.498Z,8.20
2023-10-04T21:43:38.939Z,8.27
2023-10-04T21:46:11.174Z,8.03
2023-10-04T21:48:42.387Z,8.07
2023-10-04T21:51:15.969Z,8.60
2023-10-04T21:53:45.790Z,8.73
2023-10-04T21:56:14.890Z,8.07
2023-10-04T21:58:46.359Z,8.70
2023-10-04T22:01:18.804Z,8.10
2023-10-04T22:03:50.009Z,10.00
2023-10-04T22:06:18.803Z,8.20
2023-10-04T22:08:49.222Z,8.30
2023-10-04T22:11:18.177Z,8.20
2023-10-04T22:13:46.610Z,8.17
2023-10-04T22:16:15.613Z,9.63
2023-10-04T22:18:44.296Z,8.77
2023-10-04T22:21:12.652Z,7.90
2023-10-04T22:23:41.395Z,9.00
2023-10-04T22:26:12.563Z,9.70
2023-10-04T22:28:42.875Z,9.83
2023-10-04T22:31:11.288Z,7.83
2023-10-04T22:33:41.180Z,8.30
2023-10-04T22:36:10.808Z,8.03
2023-10-04T22:38:41.171Z,7.47
2023-10-04T22:41:11.178Z,8.27
2023-10-04T22:43:39.692Z,8.93
2023-10-04T22:46:08.038Z,8.20
2023-10-04T22:48:37.910Z,8.27
2023-10-04T22:51:06.399Z,8.70
2023-10-04T22:53:35.532Z,8.50
2023-10-04T22:56:05.793Z,9.50
2023-10-04T22:58:38.438Z,8.17
2023-10-04T23:01:12.535Z,8.77
2023-10-04T23:03:44.631Z,8.43
2023-10-04T23:06:14.090Z,9.10
2023-10-04T23:08:42.893Z,8.33
2023-10-04T23:11:12.216Z,8.20
2023-10-04T23:13:44.618Z,8.20
2023-10-04T23:16:15.309Z,9.20
2023-10-04T23:18:47.009Z,7.87
2023-10-04T23:21:25.273Z,8.00
2023-10-04T23:24:04.769Z,7.50
2023-10-04T23:26:33.018Z,7.70
2023-10-04T23:29:06.602Z,9.10
2023-10-04T23:31:38.614Z,9.47
2023-10-04T23:34:10.425Z,8.27
2023-10-04T23:36:41.509Z,7.70
2023-10-04T23:39:11.636Z,8.63
2023-10-04T23:41:44.016Z,8.80
2023-10-04T23:44:20.139Z,8.90
2023-10-04T23:46:51.055Z,8.33
2023-10-04T23:49:20.932Z,7.50
2023-10-04T23:51:50.052Z,7.60
2023-10-04T23:54:23.574Z,7.60
2023-10-04T23:57:14.435Z,8.17
2023-10-04T23:59:44.283Z,8.50
